PWSweather.com
Personal Weather Stations
Station Observations
COONRAPIDS
Minneapolis, MN 55433

Minneapolis, MN 55433

Lat: 45.187721, Lon: -93.36828

Elevation: 898

Station Type: Davis Vantage Pro 2

High Low Average
Temperature 87.2°F30.7°C 68.5°F20.3°C 75.4°F24.1°C
Dew Point 68.5°F20.3°C 63.1°F17.3°C 66.1°F18.9°C
Winds 2.3 mph 3.7 kmh Calm Calm Calm WSWCalm WSW
Wind Gusts 4.6 mph7.4 kmh -- --
Humidity 89% 46% 75%
Pressure 29.84 in1010.5 mb 29.72 in1006.4 mb -
Precipitation 0.00 in0.0 mm - -
Hour Temp Dew Point Humidity Winds Wind Gusts Pressure Precip Precip Rate Daily Precip Total
12:00 AM 72.1°F22.3°C 66.6°F19.2°C 83% Calm Calm -- 29.72 in1006.4 mb - 0.00 in0.0 mm 0.00 in0.0 mm
12:10 AM 72.0°F22.2°C 66.6°F19.2°C 83% Calm Calm -- 29.73 in1006.8 mb - 0.00 in0.0 mm 0.00 in0.0 mm
12:20 AM 72.1°F22.3°C 66.6°F19.2°C 83% Calm Calm -- 29.73 in1006.8 mb - 0.00 in0.0 mm 0.00 in0.0 mm
12:30 AM 72.3°F22.4°C 66.8°F19.3°C 83% Calm Calm -- 29.74 in1007.1 mb - 0.00 in0.0 mm 0.00 in0.0 mm
12:40 AM 72.4°F22.4°C 66.9°F19.4°C 83% Calm Calm -- 29.74 in1007.1 mb - 0.00 in0.0 mm 0.00 in0.0 mm
12:50 AM 72.5°F22.5°C 66.7°F19.3°C 82% Calm Calm -- 29.74 in1007.1 mb - 0.00 in0.0 mm 0.00 in0.0 mm
01:00 AM 72.6°F22.6°C 66.8°F19.3°C 82% Calm Calm 1.2 mph1.9 kmh 29.74 in1007.1 mb - 0.00 in0.0 mm 0.00 in0.0 mm
01:10 AM 72.6°F22.6°C 66.8°F19.3°C 82% Calm Calm -- 29.74 in1007.1 mb - 0.00 in0.0 mm 0.00 in0.0 mm
01:20 AM 72.7°F22.6°C 66.9°F19.4°C 82% Calm Calm -- 29.74 in1007.1 mb - 0.00 in0.0 mm 0.00 in0.0 mm
01:30 AM 72.7°F22.6°C 66.9°F19.4°C 82% Calm Calm -- 29.74 in1007.1 mb - 0.00 in0.0 mm 0.00 in0.0 mm
01:40 AM 72.6°F22.6°C 66.8°F19.3°C 82% Calm Calm -- 29.74 in1007.1 mb - 0.00 in0.0 mm 0.00 in0.0 mm
01:50 AM 72.6°F22.6°C 66.8°F19.3°C 82% Calm Calm -- 29.74 in1007.1 mb - 0.00 in0.0 mm 0.00 in0.0 mm
02:00 AM 72.6°F22.6°C 66.8°F19.3°C 82% Calm Calm -- 29.74 in1007.1 mb - 0.00 in0.0 mm 0.00 in0.0 mm
02:10 AM 72.5°F22.5°C 66.7°F19.3°C 82% Calm Calm -- 29.74 in1007.1 mb - 0.00 in0.0 mm 0.00 in0.0 mm
02:20 AM 72.4°F22.4°C 66.6°F19.2°C 82% Calm Calm 1.2 mph1.9 kmh 29.74 in1007.1 mb - 0.00 in0.0 mm 0.00 in0.0 mm
02:30 AM 72.2°F22.3°C 66.7°F19.3°C 83% Calm Calm -- 29.73 in1006.8 mb - 0.00 in0.0 mm 0.00 in0.0 mm
02:40 AM 71.9°F22.2°C 66.4°F19.1°C 83% Calm Calm -- 29.73 in1006.8 mb - 0.00 in0.0 mm 0.00 in0.0 mm
02:50 AM 71.6°F22.0°C 66.1°F18.9°C 83% Calm Calm -- 29.73 in1006.8 mb - 0.00 in0.0 mm 0.00 in0.0 mm
03:00 AM 71.2°F21.8°C 66.1°F18.9°C 84% Calm Calm -- 29.72 in1006.4 mb - 0.00 in0.0 mm 0.00 in0.0 mm
03:10 AM 70.9°F21.6°C 65.8°F18.8°C 84% Calm Calm -- 29.73 in1006.8 mb - 0.00 in0.0 mm 0.00 in0.0 mm
03:20 AM 70.6°F21.4°C 65.9°F18.8°C 85% Calm Calm -- 29.73 in1006.8 mb - 0.00 in0.0 mm 0.00 in0.0 mm
03:30 AM 70.2°F21.2°C 65.5°F18.6°C 85% Calm Calm -- 29.74 in1007.1 mb - 0.00 in0.0 mm 0.00 in0.0 mm
03:40 AM 69.9°F21.1°C 65.2°F18.4°C 85% Calm Calm -- 29.74 in1007.1 mb - 0.00 in0.0 mm 0.00 in0.0 mm
03:50 AM 69.7°F20.9°C 65.4°F18.6°C 86% Calm Calm -- 29.75 in1007.5 mb - 0.00 in0.0 mm 0.00 in0.0 mm
04:00 AM 69.8°F21.0°C 65.8°F18.8°C 87% Calm Calm -- 29.75 in1007.5 mb - 0.00 in0.0 mm 0.00 in0.0 mm
04:10 AM 69.9°F21.1°C 65.9°F18.8°C 87% Calm Calm -- 29.75 in1007.5 mb - 0.00 in0.0 mm 0.00 in0.0 mm
04:20 AM 69.8°F21.0°C 65.8°F18.8°C 87% Calm Calm -- 29.74 in1007.1 mb - 0.00 in0.0 mm 0.00 in0.0 mm
04:30 AM 69.6°F20.9°C 65.6°F18.7°C 87% Calm Calm -- 29.75 in1007.5 mb - 0.00 in0.0 mm 0.00 in0.0 mm
04:40 AM 69.5°F20.8°C 65.5°F18.6°C 87% Calm Calm -- 29.75 in1007.5 mb - 0.00 in0.0 mm 0.00 in0.0 mm
04:50 AM 69.5°F20.8°C 65.8°F18.8°C 88% Calm Calm -- 29.75 in1007.5 mb - 0.00 in0.0 mm 0.00 in0.0 mm
05:00 AM 69.4°F20.8°C 65.4°F18.6°C 87% Calm Calm -- 29.75 in1007.5 mb - 0.00 in0.0 mm 0.00 in0.0 mm
05:10 AM 69.1°F20.6°C 65.1°F18.4°C 87% Calm Calm -- 29.77 in1008.1 mb - 0.00 in0.0 mm 0.00 in0.0 mm
05:20 AM 68.9°F20.5°C 65.2°F18.4°C 88% Calm Calm -- 29.78 in1008.5 mb - 0.00 in0.0 mm 0.00 in0.0 mm
05:30 AM 68.7°F20.4°C 65.0°F18.3°C 88% Calm Calm -- 29.79 in1008.8 mb - 0.00 in0.0 mm 0.00 in0.0 mm
05:40 AM 68.6°F20.3°C 64.9°F18.3°C 88% Calm Calm -- 29.80 in1009.1 mb - 0.00 in0.0 mm 0.00 in0.0 mm
05:50 AM 68.5°F20.3°C 64.8°F18.2°C 88% Calm Calm -- 29.80 in1009.1 mb - 0.00 in0.0 mm 0.00 in0.0 mm
06:00 AM 68.5°F20.3°C 64.8°F18.2°C 88% Calm Calm -- 29.81 in1009.5 mb - 0.00 in0.0 mm 0.00 in0.0 mm
06:10 AM 68.8°F20.4°C 65.4°F18.6°C 89% Calm Calm -- 29.80 in1009.1 mb - 0.00 in0.0 mm 0.00 in0.0 mm
06:20 AM 69.0°F20.6°C 65.6°F18.7°C 89% Calm Calm -- 29.80 in1009.1 mb - 0.00 in0.0 mm 0.00 in0.0 mm
06:30 AM 68.9°F20.5°C 65.5°F18.6°C 89% Calm Calm -- 29.80 in1009.1 mb - 0.00 in0.0 mm 0.00 in0.0 mm
06:40 AM 68.9°F20.5°C 65.5°F18.6°C 89% Calm Calm -- 29.81 in1009.5 mb - 0.00 in0.0 mm 0.00 in0.0 mm
06:50 AM 69.1°F20.6°C 65.7°F18.7°C 89% Calm Calm -- 29.81 in1009.5 mb - 0.00 in0.0 mm 0.00 in0.0 mm
07:00 AM 69.4°F20.8°C 66.0°F18.9°C 89% Calm Calm -- 29.82 in1009.8 mb - 0.00 in0.0 mm 0.00 in0.0 mm
07:10 AM 69.6°F20.9°C 66.2°F19.0°C 89% Calm Calm -- 29.83 in1010.2 mb - 0.00 in0.0 mm 0.00 in0.0 mm
07:20 AM 69.8°F21.0°C 66.4°F19.1°C 89% Calm Calm -- 29.84 in1010.5 mb - 0.00 in0.0 mm 0.00 in0.0 mm
07:30 AM 69.9°F21.1°C 66.5°F19.2°C 89% Calm Calm -- 29.84 in1010.5 mb - 0.00 in0.0 mm 0.00 in0.0 mm
07:40 AM 70.2°F21.2°C 66.8°F19.3°C 89% Calm Calm -- 29.84 in1010.5 mb - 0.00 in0.0 mm 0.00 in0.0 mm
07:50 AM 70.4°F21.3°C 67.0°F19.4°C 89% Calm Calm -- 29.84 in1010.5 mb - 0.00 in0.0 mm 0.00 in0.0 mm
08:00 AM 70.6°F21.4°C 66.9°F19.4°C 88% Calm Calm -- 29.84 in1010.5 mb - 0.00 in0.0 mm 0.00 in0.0 mm
08:10 AM 70.9°F21.6°C 67.1°F19.5°C 88% Calm Calm -- 29.84 in1010.5 mb - 0.00 in0.0 mm 0.00 in0.0 mm
08:20 AM 71.1°F21.7°C 67.4°F19.7°C 88% Calm Calm -- 29.84 in1010.5 mb - 0.00 in0.0 mm 0.00 in0.0 mm
08:30 AM 71.6°F22.0°C 67.5°F19.7°C 87% Calm Calm -- 29.84 in1010.5 mb - 0.00 in0.0 mm 0.00 in0.0 mm
08:40 AM 71.9°F22.2°C 67.5°F19.7°C 86% Calm Calm -- 29.84 in1010.5 mb - 0.00 in0.0 mm 0.00 in0.0 mm
08:50 AM 72.5°F22.5°C 67.7°F19.8°C 85% Calm Calm -- 29.84 in1010.5 mb - 0.00 in0.0 mm 0.00 in0.0 mm
09:00 AM 73.0°F22.8°C 67.9°F19.9°C 84% Calm Calm -- 29.84 in1010.5 mb - 0.00 in0.0 mm 0.00 in0.0 mm
09:10 AM 73.8°F23.2°C 67.9°F19.9°C 82% Calm Calm -- 29.84 in1010.5 mb - 0.00 in0.0 mm 0.00 in0.0 mm
09:20 AM 74.2°F23.4°C 68.0°F20.0°C 81% Calm Calm -- 29.84 in1010.5 mb - 0.00 in0.0 mm 0.00 in0.0 mm
09:30 AM 74.6°F23.7°C 68.0°F20.0°C 80% Calm Calm -- 29.84 in1010.5 mb - 0.00 in0.0 mm 0.00 in0.0 mm
09:40 AM 75.5°F24.2°C 68.1°F20.1°C 78% Calm Calm -- 29.84 in1010.5 mb - 0.00 in0.0 mm 0.00 in0.0 mm
09:50 AM 75.8°F24.3°C 68.1°F20.1°C 77% Calm Calm -- 29.84 in1010.5 mb - 0.00 in0.0 mm 0.00 in0.0 mm
10:00 AM 75.6°F24.2°C 67.5°F19.7°C 76% Calm Calm -- 29.84 in1010.5 mb - 0.00 in0.0 mm 0.00 in0.0 mm
10:10 AM 76.6°F24.8°C 68.1°F20.1°C 75% Calm Calm -- 29.84 in1010.5 mb - 0.00 in0.0 mm 0.00 in0.0 mm
10:20 AM 77.0°F25.0°C 67.3°F19.6°C 72% 1.2 mph WSW1.9 kmh WSW -- 29.84 in1010.5 mb - 0.00 in0.0 mm 0.00 in0.0 mm
10:30 AM 77.2°F25.1°C 67.5°F19.7°C 72% Calm Calm -- 29.84 in1010.5 mb - 0.00 in0.0 mm 0.00 in0.0 mm
10:40 AM 78.2°F25.7°C 68.5°F20.3°C 72% Calm Calm -- 29.84 in1010.5 mb - 0.00 in0.0 mm 0.00 in0.0 mm
10:50 AM 78.8°F26.0°C 67.4°F19.7°C 68% Calm Calm -- 29.84 in1010.5 mb - 0.00 in0.0 mm 0.00 in0.0 mm
11:00 AM 79.1°F26.2°C 67.6°F19.8°C 68% Calm Calm -- 29.83 in1010.2 mb - 0.00 in0.0 mm 0.00 in0.0 mm
11:10 AM 79.1°F26.2°C 68.1°F20.1°C 69% Calm Calm 1.2 mph1.9 kmh 29.84 in1010.5 mb - 0.00 in0.0 mm 0.00 in0.0 mm
11:20 AM 79.3°F26.3°C 67.4°F19.7°C 67% Calm Calm -- 29.83 in1010.2 mb - 0.00 in0.0 mm 0.00 in0.0 mm
11:30 AM 79.4°F26.3°C 67.5°F19.7°C 67% Calm Calm -- 29.83 in1010.2 mb - 0.00 in0.0 mm 0.00 in0.0 mm
11:40 AM 79.8°F26.6°C 67.9°F19.9°C 67% Calm Calm -- 29.83 in1010.2 mb - 0.00 in0.0 mm 0.00 in0.0 mm
11:50 AM 80.3°F26.8°C 67.5°F19.7°C 65% Calm Calm -- 29.82 in1009.8 mb - 0.00 in0.0 mm 0.00 in0.0 mm
12:00 PM 80.3°F26.8°C 67.9°F19.9°C 66% Calm Calm -- 29.82 in1009.8 mb - 0.00 in0.0 mm 0.00 in0.0 mm
12:10 PM 80.8°F27.1°C 67.9°F19.9°C 65% Calm Calm 3.5 mph5.6 kmh 29.82 in1009.8 mb - 0.00 in0.0 mm 0.00 in0.0 mm
12:20 PM 80.7°F27.1°C 67.9°F19.9°C 65% Calm Calm -- 29.82 in1009.8 mb - 0.00 in0.0 mm 0.00 in0.0 mm
12:30 PM 80.9°F27.2°C 68.0°F20.0°C 65% Calm Calm -- 29.82 in1009.8 mb - 0.00 in0.0 mm 0.00 in0.0 mm
12:40 PM 81.6°F27.6°C 68.2°F20.1°C 64% Calm Calm 4.6 mph7.4 kmh 29.82 in1009.8 mb - 0.00 in0.0 mm 0.00 in0.0 mm
12:50 PM 81.7°F27.6°C 67.4°F19.7°C 62% 1.2 mph WSW1.9 kmh WSW -- 29.81 in1009.5 mb - 0.00 in0.0 mm 0.00 in0.0 mm
01:00 PM 81.9°F27.7°C 67.1°F19.5°C 61% 2.3 mph W3.7 kmh W 4.6 mph7.4 kmh 29.81 in1009.5 mb - 0.00 in0.0 mm 0.00 in0.0 mm
01:10 PM 82.1°F27.8°C 67.3°F19.6°C 61% 1.2 mph W1.9 kmh W 3.5 mph5.6 kmh 29.81 in1009.5 mb - 0.00 in0.0 mm 0.00 in0.0 mm
01:20 PM 82.7°F28.2°C 67.4°F19.7°C 60% 2.3 mph W3.7 kmh W 4.6 mph7.4 kmh 29.82 in1009.8 mb - 0.00 in0.0 mm 0.00 in0.0 mm
01:30 PM 82.8°F28.2°C 67.5°F19.7°C 60% Calm Calm -- 29.82 in1009.8 mb - 0.00 in0.0 mm 0.00 in0.0 mm
01:40 PM 82.6°F28.1°C 68.3°F20.2°C 62% Calm Calm -- 29.82 in1009.8 mb - 0.00 in0.0 mm 0.00 in0.0 mm
01:50 PM 82.8°F28.2°C 67.5°F19.7°C 60% Calm Calm 3.5 mph5.6 kmh 29.81 in1009.5 mb - 0.00 in0.0 mm 0.00 in0.0 mm
02:00 PM 83.6°F28.7°C 66.7°F19.3°C 57% Calm Calm -- 29.81 in1009.5 mb - 0.00 in0.0 mm 0.00 in0.0 mm
02:10 PM 83.7°F28.7°C 66.8°F19.3°C 57% Calm Calm -- 29.81 in1009.5 mb - 0.00 in0.0 mm 0.00 in0.0 mm
02:20 PM 84.0°F28.9°C 67.7°F19.8°C 58% Calm Calm -- 29.81 in1009.5 mb - 0.00 in0.0 mm 0.00 in0.0 mm
02:30 PM 84.3°F29.1°C 67.4°F19.7°C 57% Calm Calm -- 29.81 in1009.5 mb - 0.00 in0.0 mm 0.00 in0.0 mm
02:40 PM 84.3°F29.1°C 66.3°F19.1°C 55% Calm Calm 1.2 mph1.9 kmh 29.81 in1009.5 mb - 0.00 in0.0 mm 0.00 in0.0 mm
02:50 PM 84.5°F29.2°C 66.0°F18.9°C 54% Calm Calm 1.2 mph1.9 kmh 29.81 in1009.5 mb - 0.00 in0.0 mm 0.00 in0.0 mm
03:00 PM 85.3°F29.6°C 65.2°F18.4°C 51% Calm Calm -- 29.81 in1009.5 mb - 0.00 in0.0 mm 0.00 in0.0 mm
03:10 PM 85.8°F29.9°C 65.0°F18.3°C 50% Calm Calm -- 29.81 in1009.5 mb - 0.00 in0.0 mm 0.00 in0.0 mm
03:20 PM 86.5°F30.3°C 65.1°F18.4°C 49% Calm Calm -- 29.81 in1009.5 mb - 0.00 in0.0 mm 0.00 in0.0 mm
03:30 PM 86.9°F30.5°C 64.8°F18.2°C 48% Calm Calm -- 29.80 in1009.1 mb - 0.00 in0.0 mm 0.00 in0.0 mm
03:40 PM 87.2°F30.7°C 63.9°F17.7°C 46% Calm Calm -- 29.80 in1009.1 mb - 0.00 in0.0 mm 0.00 in0.0 mm
03:50 PM 86.9°F30.5°C 63.6°F17.6°C 46% 2.3 mph WSW3.7 kmh WSW 4.6 mph7.4 kmh 29.80 in1009.1 mb - 0.00 in0.0 mm 0.00 in0.0 mm
04:00 PM 86.5°F30.3°C 63.3°F17.4°C 46% 1.2 mph WSW1.9 kmh WSW 3.5 mph5.6 kmh 29.81 in1009.5 mb - 0.00 in0.0 mm 0.00 in0.0 mm
04:10 PM 85.8°F29.9°C 63.8°F17.7°C 48% Calm Calm -- 29.81 in1009.5 mb - 0.00 in0.0 mm 0.00 in0.0 mm
04:20 PM 86.7°F30.4°C 64.7°F18.2°C 48% Calm Calm -- 29.81 in1009.5 mb - 0.00 in0.0 mm 0.00 in0.0 mm
04:30 PM 86.6°F30.3°C 64.6°F18.1°C 48% Calm Calm -- 29.82 in1009.8 mb - 0.00 in0.0 mm 0.00 in0.0 mm
04:40 PM 86.4°F30.2°C 65.6°F18.7°C 50% Calm Calm -- 29.82 in1009.8 mb - 0.00 in0.0 mm 0.00 in0.0 mm
04:50 PM 85.3°F29.6°C 64.0°F17.8°C 49% Calm Calm -- 29.82 in1009.8 mb - 0.00 in0.0 mm 0.00 in0.0 mm
05:00 PM 84.4°F29.1°C 63.1°F17.3°C 49% Calm Calm -- 29.82 in1009.8 mb - 0.00 in0.0 mm 0.00 in0.0 mm
05:10 PM 83.5°F28.6°C 64.6°F18.1°C 53% Calm Calm -- 29.82 in1009.8 mb - 0.00 in0.0 mm 0.00 in0.0 mm
05:20 PM 82.8°F28.2°C 63.4°F17.4°C 52% 1.2 mph W1.9 kmh W 2.3 mph3.7 kmh 29.82 in1009.8 mb - 0.00 in0.0 mm 0.00 in0.0 mm
05:30 PM 82.3°F27.9°C 65.0°F18.3°C 56% Calm Calm -- 29.82 in1009.8 mb - 0.00 in0.0 mm 0.00 in0.0 mm
05:40 PM 81.6°F27.6°C 65.4°F18.6°C 58% Calm Calm -- 29.82 in1009.8 mb - 0.00 in0.0 mm 0.00 in0.0 mm
05:50 PM 81.0°F27.2°C 65.3°F18.5°C 59% Calm Calm -- 29.82 in1009.8 mb - 0.00 in0.0 mm 0.00 in0.0 mm
06:00 PM 80.3°F26.8°C 65.1°F18.4°C 60% Calm Calm -- 29.82 in1009.8 mb - 0.00 in0.0 mm 0.00 in0.0 mm
06:10 PM 79.6°F26.4°C 65.0°F18.3°C 61% Calm Calm -- 29.82 in1009.8 mb - 0.00 in0.0 mm 0.00 in0.0 mm
06:20 PM 79.0°F26.1°C 64.8°F18.2°C 62% Calm Calm -- 29.82 in1009.8 mb - 0.00 in0.0 mm 0.00 in0.0 mm
06:30 PM 78.3°F25.7°C 65.1°F18.4°C 64% Calm Calm -- 29.81 in1009.5 mb - 0.00 in0.0 mm 0.00 in0.0 mm
06:40 PM 77.7°F25.4°C 64.5°F18.1°C 64% Calm Calm -- 29.81 in1009.5 mb - 0.00 in0.0 mm 0.00 in0.0 mm
06:50 PM 77.0°F25.0°C 64.8°F18.2°C 66% Calm Calm -- 29.81 in1009.5 mb - 0.00 in0.0 mm 0.00 in0.0 mm
07:00 PM 76.2°F24.6°C 64.5°F18.1°C 67% Calm Calm -- 29.81 in1009.5 mb - 0.00 in0.0 mm 0.00 in0.0 mm
07:10 PM 75.5°F24.2°C 64.6°F18.1°C 69% Calm Calm -- 29.81 in1009.5 mb - 0.00 in0.0 mm 0.00 in0.0 mm
07:20 PM 74.8°F23.8°C 64.7°F18.2°C 71% Calm Calm -- 29.82 in1009.8 mb - 0.00 in0.0 mm 0.00 in0.0 mm
07:30 PM 74.0°F23.3°C 64.8°F18.2°C 73% Calm Calm -- 29.81 in1009.5 mb - 0.00 in0.0 mm 0.00 in0.0 mm
07:40 PM 73.3°F22.9°C 64.9°F18.3°C 75% Calm Calm -- 29.82 in1009.8 mb - 0.00 in0.0 mm 0.00 in0.0 mm
07:50 PM 73.0°F22.8°C 65.4°F18.6°C 77% Calm Calm -- 29.82 in1009.8 mb - 0.00 in0.0 mm 0.00 in0.0 mm
08:00 PM 73.1°F22.8°C 65.8°F18.8°C 78% Calm Calm -- 29.82 in1009.8 mb - 0.00 in0.0 mm 0.00 in0.0 mm
08:10 PM 73.1°F22.8°C 65.8°F18.8°C 78% Calm Calm -- 29.83 in1010.2 mb - 0.00 in0.0 mm 0.00 in0.0 mm
08:20 PM 73.3°F22.9°C 66.0°F18.9°C 78% Calm Calm -- 29.82 in1009.8 mb - 0.00 in0.0 mm 0.00 in0.0 mm
08:30 PM 73.2°F22.9°C 65.9°F18.8°C 78% Calm Calm -- 29.83 in1010.2 mb - 0.00 in0.0 mm 0.00 in0.0 mm
08:40 PM 72.8°F22.7°C 65.9°F18.8°C 79% Calm Calm -- 29.83 in1010.2 mb - 0.00 in0.0 mm 0.00 in0.0 mm
08:50 PM 72.3°F22.4°C 65.8°F18.8°C 80% Calm Calm -- 29.83 in1010.2 mb - 0.00 in0.0 mm 0.00 in0.0 mm
09:00 PM 72.0°F22.2°C 65.8°F18.8°C 81% Calm Calm -- 29.83 in1010.2 mb - 0.00 in0.0 mm 0.00 in0.0 mm
09:10 PM 72.0°F22.2°C 65.8°F18.8°C 81% Calm Calm -- 29.83 in1010.2 mb - 0.00 in0.0 mm 0.00 in0.0 mm
09:20 PM 72.0°F22.2°C 65.8°F18.8°C 81% Calm Calm -- 29.84 in1010.5 mb - 0.00 in0.0 mm 0.00 in0.0 mm
09:30 PM 72.0°F22.2°C 65.8°F18.8°C 81% Calm Calm -- 29.83 in1010.2 mb - 0.00 in0.0 mm 0.00 in0.0 mm
09:40 PM 71.9°F22.2°C 65.8°F18.8°C 81% Calm Calm -- 29.83 in1010.2 mb - 0.00 in0.0 mm 0.00 in0.0 mm
09:50 PM 71.8°F22.1°C 65.7°F18.7°C 81% Calm Calm -- 29.84 in1010.5 mb - 0.00 in0.0 mm 0.00 in0.0 mm
10:00 PM 71.5°F21.9°C 65.7°F18.7°C 82% Calm Calm -- 29.84 in1010.5 mb - 0.00 in0.0 mm 0.00 in0.0 mm
10:10 PM 71.1°F21.7°C 65.3°F18.5°C 82% Calm Calm -- 29.84 in1010.5 mb - 0.00 in0.0 mm 0.00 in0.0 mm
10:20 PM 70.8°F21.6°C 65.4°F18.6°C 83% Calm Calm -- 29.83 in1010.2 mb - 0.00 in0.0 mm 0.00 in0.0 mm
10:30 PM 70.6°F21.4°C 65.5°F18.6°C 84% Calm Calm -- 29.83 in1010.2 mb - 0.00 in0.0 mm 0.00 in0.0 mm
10:40 PM 70.3°F21.3°C 65.3°F18.5°C 84% Calm Calm -- 29.83 in1010.2 mb - 0.00 in0.0 mm 0.00 in0.0 mm
10:50 PM 70.2°F21.2°C 65.5°F18.6°C 85% Calm Calm -- 29.82 in1009.8 mb - 0.00 in0.0 mm 0.00 in0.0 mm
11:00 PM 70.1°F21.2°C 65.4°F18.6°C 85% Calm Calm -- 29.83 in1010.2 mb - 0.00 in0.0 mm 0.00 in0.0 mm
11:10 PM 70.1°F21.2°C 65.7°F18.7°C 86% Calm Calm -- 29.83 in1010.2 mb - 0.00 in0.0 mm 0.00 in0.0 mm
11:20 PM 70.1°F21.2°C 65.7°F18.7°C 86% Calm Calm -- 29.83 in1010.2 mb - 0.00 in0.0 mm 0.00 in0.0 mm
11:30 PM 69.9°F21.1°C 65.5°F18.6°C 86% Calm Calm -- 29.84 in1010.5 mb - 0.00 in0.0 mm 0.00 in0.0 mm
11:40 PM 70.1°F21.2°C 66.0°F18.9°C 87% Calm Calm -- 29.84 in1010.5 mb - 0.00 in0.0 mm 0.00 in0.0 mm
11:50 PM 70.1°F21.2°C 66.1°F18.9°C 87% Calm Calm -- 29.84 in1010.5 mb - 0.00 in0.0 mm 0.00 in0.0 mm